Time;durP1;ratioP1;P1;durP2;ratioP2;P2;SDS_P1;SDS_P2;PMS_P1;PMS_P2;Temp;Humidity;BMP_temperature;BMP_pressure;BME280_temperature;BME280_humidity;BME280_pressure;Samples;Min_cycle;Max_cycle;Signal;HPM_P1;HPM_P2
2022/03/27 00:01:31;;;;;;;24.65;12.25;;;;;;;8.53;88.75;103129.88;5022184;28;20050;-74
2022/03/27 00:03:57;;;;;;;25.98;12.23;;;;;;;8.42;88.86;103128.25;5023771;28;20053;-75
2022/03/27 00:06:23;;;;;;;22.38;12.30;;;;;;;8.66;87.76;103124.78;5022847;28;20101;-75
2022/03/27 00:08:48;;;;;;;22.48;11.70;;;;;;;8.42;89.32;103127.41;5020046;28;20053;-75
2022/03/27 00:11:26;;;;;;;23.45;11.57;;;;;;;8.37;89.29;103119.66;5023138;28;20128;-75
2022/03/27 00:13:53;;;;;;;25.05;12.63;;;;;;;8.36;89.16;103122.50;5017924;28;20093;-75
2022/03/27 00:16:18;;;;;;;27.55;12.52;;;;;;;8.29;89.42;103130.50;5021655;28;20514;-75
2022/03/27 00:18:43;;;;;;;26.50;12.88;;;;;;;8.28;89.71;103123.31;5023702;28;20037;-75
2022/03/27 00:21:10;;;;;;;21.42;12.23;;;;;;;8.23;89.83;103120.22;5023082;28;20033;-75
2022/03/27 00:23:35;;;;;;;24.20;12.13;;;;;;;8.23;89.91;103132.00;5022869;28;20048;-75
2022/03/27 00:26:00;;;;;;;22.63;12.13;;;;;;;8.26;90.03;103128.06;5018354;28;20037;-76
2022/03/27 00:28:31;;;;;;;25.30;12.38;;;;;;;8.26;90.30;103126.22;5021915;28;20045;-75
2022/03/27 00:30:57;;;;;;;21.80;12.23;;;;;;;8.22;90.05;103127.56;5023125;28;20345;-75
2022/03/27 00:33:22;;;;;;;21.77;11.95;;;;;;;8.22;90.01;103130.28;5022870;28;20052;-75
2022/03/27 00:35:47;;;;;;;20.42;12.32;;;;;;;8.18;90.21;103128.03;5021179;28;20044;-75
2022/03/27 00:38:13;;;;;;;20.25;11.45;;;;;;;8.16;90.13;103128.19;5019486;28;20030;-74
2022/03/27 00:40:38;;;;;;;24.90;12.40;;;;;;;8.13;90.19;103127.66;5022562;28;20543;-68
2022/03/27 00:43:04;;;;;;;18.33;11.43;;;;;;;8.06;90.21;103122.81;5023680;28;20037;-75
2022/03/27 00:45:29;;;;;;;18.15;10.90;;;;;;;8.03;90.18;103127.75;5021252;28;20511;-75
2022/03/27 00:47:55;;;;;;;18.63;11.07;;;;;;;8.00;90.30;103122.56;5021103;28;20121;-75
2022/03/27 00:50:20;;;;;;;19.02;10.20;;;;;;;7.99;90.46;103124.44;5022611;28;20044;-75
2022/03/27 00:52:46;;;;;;;16.60;9.93;;;;;;;7.91;90.05;103127.13;5022431;28;20570;-75
2022/03/27 00:55:11;;;;;;;18.42;10.40;;;;;;;7.86;90.05;103120.41;5021783;28;20496;-76
2022/03/27 00:57:37;;;;;;;17.23;10.68;;;;;;;7.85;90.49;103115.94;5021585;28;20029;-75
2022/03/27 01:00:09;;;;;;;17.73;10.90;;;;;;;7.79;91.21;103118.28;5023212;28;20033;-76
2022/03/27 01:02:35;;;;;;;18.70;11.05;;;;;;;7.79;91.06;103126.50;5022809;28;20052;-75
2022/03/27 01:05:09;;;;;;;14.07;9.70;;;;;;;7.67;90.57;103122.28;5022846;28;20384;-76
2022/03/27 01:07:34;;;;;;;17.38;10.48;;;;;;;7.61;90.74;103124.78;5020883;28;20041;-73
2022/03/27 01:09:59;;;;;;;16.23;10.13;;;;;;;7.54;90.53;103121.78;5021362;28;20033;-75
2022/03/27 01:12:35;;;;;;;17.65;11.07;;;;;;;7.60;91.70;103120.31;5020057;28;20025;-75
2022/03/27 01:15:01;;;;;;;17.63;11.40;;;;;;;7.62;91.90;103116.41;5022354;28;20113;-76
2022/03/27 01:17:27;;;;;;;15.98;10.75;;;;;;;7.58;91.55;103122.34;5020522;28;20187;-75
2022/03/27 01:19:55;;;;;;;20.40;12.35;;;;;;;7.61;92.84;103119.31;5022557;28;20033;-75
2022/03/27 01:22:22;;;;;;;19.08;11.60;;;;;;;7.63;93.36;103120.00;5020774;28;20032;-76
2022/03/27 01:24:49;;;;;;;17.88;12.02;;;;;;;7.61;93.25;103113.84;5020736;28;20383;-75
2022/03/27 01:27:15;;;;;;;18.80;12.10;;;;;;;7.62;93.29;103115.56;5021433;28;20048;-75
2022/03/27 01:29:40;;;;;;;16.83;11.48;;;;;;;7.49;92.08;103115.94;5022354;28;20029;-75
2022/03/27 01:32:07;;;;;;;16.05;11.23;;;;;;;7.41;92.50;103124.91;5023057;28;20104;-75
2022/03/27 01:34:33;;;;;;;15.55;11.02;;;;;;;7.35;92.71;103119.19;5022885;28;20576;-75
2022/03/27 01:37:07;;;;;;;17.38;10.65;;;;;;;7.24;92.55;103118.38;5013786;28;20048;-75
2022/03/27 01:39:32;;;;;;;14.32;11.10;;;;;;;7.14;93.02;103120.31;5020129;28;20037;-74
2022/03/27 01:41:57;;;;;;;17.90;11.13;;;;;;;7.07;93.04;103116.47;5022468;28;20039;-75
2022/03/27 01:44:23;;;;;;;16.80;11.55;;;;;;;7.06;93.63;103120.25;5021903;28;20540;-74
2022/03/27 01:46:48;;;;;;;18.88;13.20;;;;;;;7.10;94.29;103109.88;5021498;28;20524;-74
2022/03/27 01:49:15;;;;;;;21.50;14.15;;;;;;;7.15;95.80;103111.13;5021795;28;20730;-75
2022/03/27 01:51:42;;;;;;;19.65;14.68;;;;;;;7.21;96.21;103115.97;5021971;28;20045;-75
2022/03/27 01:54:08;;;;;;;23.33;15.30;;;;;;;7.27;96.46;103109.91;5021492;28;20076;-73
2022/03/27 01:56:33;;;;;;;24.83;16.08;;;;;;;7.38;95.68;103106.06;5025161;28;20029;-75
2022/03/27 01:58:59;;;;;;;26.58;16.70;;;;;;;7.36;96.14;103110.00;5026410;28;20032;-75
2022/03/27 02:01:24;;;;;;;25.27;17.40;;;;;;;7.40;96.48;103108.66;5024710;28;20049;-76
2022/03/27 02:03:50;;;;;;;27.33;18.77;;;;;;;7.48;96.19;103108.75;5024649;28;20095;-76
2022/03/27 02:06:16;;;;;;;28.55;19.25;;;;;;;7.49;97.15;103099.53;5026064;28;20476;-75
2022/03/27 02:08:44;;;;;;;29.02;19.08;;;;;;;7.55;97.72;103112.56;5025048;28;20026;-76
2022/03/27 02:11:10;;;;;;;;;;;;;;;7.66;95.38;103109.63;5025571;28;20123;-75
2022/03/27 02:13:36;;;;;;;25.35;17.90;;;;;;;7.68;95.27;103106.72;5025992;28;19956;-75
2022/03/27 02:16:03;;;;;;;29.90;18.83;;;;;;;7.63;96.82;103104.47;5025361;28;20069;-77
2022/03/27 02:18:29;;;;;;;27.97;18.97;;;;;;;7.86;94.66;103113.06;5025063;28;20400;-77
2022/03/27 02:20:55;;;;;;;28.65;19.17;;;;;;;7.79;95.31;103111.97;5023404;28;20032;-76
2022/03/27 02:23:24;;;;;;;26.00;18.52;;;;;;;7.90;94.16;103117.19;5023034;28;20029;-76
2022/03/27 02:25:51;;;;;;;26.98;19.42;;;;;;;7.64;96.27;103116.25;5025183;28;20029;-77
2022/03/27 02:28:17;;;;;;;23.48;16.60;;;;;;;7.90;94.31;103116.31;5024926;28;20041;-78
2022/03/27 02:30:42;;;;;;;25.98;17.25;;;;;;;7.82;94.15;103119.00;5025418;28;20025;-77
2022/03/27 02:33:08;;;;;;;26.60;18.52;;;;;;;7.60;96.12;103126.63;5025281;28;20658;-77
2022/03/27 02:35:34;;;;;;;26.02;18.52;;;;;;;7.74;95.13;103117.91;5025691;28;20017;-76
2022/03/27 02:38:00;;;;;;;28.25;19.20;;;;;;;7.63;96.27;103117.28;5024307;28;20053;-77
2022/03/27 02:40:26;;;;;;;27.30;18.98;;;;;;;7.68;95.51;103115.78;5025139;28;20028;-76
2022/03/27 02:42:51;;;;;;;29.15;20.05;;;;;;;7.65;96.01;103107.88;5024185;28;20400;-77
2022/03/27 02:45:16;;;;;;;28.98;20.13;;;;;;;7.51;97.84;103111.19;5024991;28;20030;-76
2022/03/27 02:47:42;;;;;;;28.65;19.20;;;;;;;7.51;97.76;103109.31;5025431;28;20029;-77
2022/03/27 02:50:07;;;;;;;23.67;16.00;;;;;;;7.68;96.77;103113.06;5025279;28;20373;-78
2022/03/27 02:52:33;;;;;;;27.27;19.23;;;;;;;7.73;95.61;103110.72;5021848;28;20043;-75
2022/03/27 02:54:58;;;;;;;28.67;19.70;;;;;;;7.59;96.83;103113.97;5024458;28;20025;-77
2022/03/27 02:57:24;;;;;;;26.25;16.40;;;;;;;7.82;95.88;103111.66;5023593;28;20033;-77
2022/03/27 02:59:52;;;;;;;27.23;17.85;;;;;;;7.90;94.70;103110.84;5024908;28;20064;-77
2022/03/27 03:02:18;;;;;;;27.95;17.05;;;;;;;7.76;95.48;103118.63;5022336;28;20068;-77
2022/03/27 03:04:43;;;;;;;27.15;16.25;;;;;;;7.84;94.86;103112.34;5023988;28;20476;-76
2022/03/27 03:07:09;;;;;;;20.42;13.07;;;;;;;8.11;93.47;103108.66;5023565;28;20029;-77
2022/03/27 03:09:34;;;;;;;26.85;18.00;;;;;;;8.08;93.50;103103.50;5024145;28;20030;-77
2022/03/27 03:12:00;;;;;;;34.35;22.98;;;;;;;7.66;96.01;103109.63;5023952;28;20053;-77
2022/03/27 03:14:26;;;;;;;27.67;18.67;;;;;;;7.76;95.77;103104.94;5024182;28;20481;-77
2022/03/27 03:16:52;;;;;;;22.05;16.02;;;;;;;7.87;95.27;103105.72;5023321;28;20037;-79
2022/03/27 03:19:18;;;;;;;27.52;18.88;;;;;;;7.86;94.58;103102.13;5022980;28;20033;-76
2022/03/27 03:21:43;;;;;;;27.73;18.50;;;;;;;7.65;96.27;103101.56;5024064;28;20033;-77
2022/03/27 03:24:09;;;;;;;29.52;20.15;;;;;;;7.75;95.80;103096.88;5023513;28;20037;-77
2022/03/27 03:26:34;;;;;;;27.45;16.65;;;;;;;7.99;94.02;103097.09;5024169;28;20650;-76
2022/03/27 03:28:59;;;;;;;31.60;21.85;;;;;;;7.82;95.42;103094.38;5023125;28;20029;-76
2022/03/27 03:31:25;;;;;;;33.05;23.05;;;;;;;7.76;95.97;103093.13;5024132;28;20499;-77
2022/03/27 03:33:50;;;;;;;31.38;22.77;;;;;;;7.58;97.48;103095.88;5024826;28;20037;-76
2022/03/27 03:36:15;;;;;;;26.98;18.67;;;;;;;7.66;97.24;103086.91;5024190;28;20032;-78
2022/03/27 03:38:41;;;;;;;29.80;21.45;;;;;;;7.89;94.65;103092.72;5023095;28;20243;-77
2022/03/27 03:41:08;;;;;;;28.90;19.77;;;;;;;7.66;95.98;103093.22;5025276;28;20091;-76
2022/03/27 03:43:36;;;;;;;34.35;22.52;;;;;;;7.62;97.00;103091.81;5021129;28;20029;-76
2022/03/27 03:46:02;;;;;;;32.97;23.05;;;;;;;7.84;95.15;103084.13;5024359;28;20029;-76
2022/03/27 03:48:28;;;;;;;25.15;15.65;;;;;;;7.93;94.90;103083.19;5022668;28;20068;-76
2022/03/27 03:50:53;;;;;;;26.05;16.50;;;;;;;7.78;95.51;103091.94;5022457;28;20053;-76
2022/03/27 03:53:18;;;;;;;26.88;17.15;;;;;;;7.76;96.02;103083.06;5021736;28;20447;-76
2022/03/27 03:55:44;;;;;;;34.55;23.70;;;;;;;7.42;98.08;103085.63;5024370;28;20055;-75
2022/03/27 03:58:09;;;;;;;36.70;25.08;;;;;;;7.41;98.79;103092.13;5021902;28;20410;-69
2022/03/27 04:00:34;;;;;;;35.78;24.75;;;;;;;7.37;99.17;103081.63;5024064;28;20029;-75
2022/03/27 04:02:59;;;;;;;40.03;25.77;;;;;;;7.37;99.73;103084.38;5023559;28;20041;-75
2022/03/27 04:05:25;;;;;;;41.78;26.15;;;;;;;7.40;99.92;103086.78;5024282;28;20036;-75
2022/03/27 04:07:50;;;;;;;37.08;25.85;;;;;;;7.43;100.00;103095.53;5021411;28;20138;-75
2022/03/27 04:10:15;;;;;;;40.35;24.83;;;;;;;7.42;100.00;103087.50;5023359;28;20056;-75
2022/03/27 04:12:40;;;;;;;37.88;25.30;;;;;;;7.45;100.00;103095.38;5023700;28;20053;-76
2022/03/27 04:15:06;;;;;;;28.25;16.20;;;;;;;7.98;95.31;103091.78;5023931;28;20098;-77
2022/03/27 04:17:31;;;;;;;26.42;17.00;;;;;;;7.63;97.20;103090.78;5021259;28;20030;-77
2022/03/27 04:19:56;;;;;;;31.00;19.60;;;;;;;7.91;94.85;103091.56;5022798;28;20029;-78
2022/03/27 04:22:22;;;;;;;32.53;20.92;;;;;;;7.78;94.81;103091.94;5022885;28;20426;-74
2022/03/27 04:24:47;;;;;;;31.55;20.98;;;;;;;7.52;97.05;103096.50;5023023;28;20026;-77
2022/03/27 04:27:13;;;;;;;34.88;22.33;;;;;;;7.35;98.44;103094.59;5023134;28;20056;-76
2022/03/27 04:29:38;;;;;;;28.48;16.45;;;;;;;7.62;96.77;103091.81;5019265;28;20042;-69
2022/03/27 04:32:04;;;;;;;30.27;19.10;;;;;;;7.45;97.46;103095.38;5023725;28;20022;-76
2022/03/27 04:34:29;;;;;;;38.80;24.13;;;;;;;7.26;98.27;103086.31;5023039;28;20037;-76
2022/03/27 04:36:54;;;;;;;36.40;24.83;;;;;;;7.20;99.45;103097.00;5022564;28;20528;-76
2022/03/27 04:39:22;;;;;;;39.28;25.13;;;;;;;7.22;100.00;103097.72;5021504;28;20033;-75
2022/03/27 04:41:47;;;;;;;39.50;23.33;;;;;;;7.34;100.00;103092.88;5022230;28;20068;-77
2022/03/27 04:44:13;;;;;;;43.83;25.48;;;;;;;7.26;100.00;103096.38;5022010;28;20417;-76
2022/03/27 04:46:38;;;;;;;39.10;24.00;;;;;;;7.49;98.22;103094.91;5022675;28;20045;-68
2022/03/27 04:49:04;;;;;;;34.97;24.13;;;;;;;7.23;100.00;103107.63;5021412;28;20033;-76
2022/03/27 04:51:29;;;;;;;35.28;19.85;;;;;;;7.46;98.12;103100.72;5021952;28;20033;-76
2022/03/27 04:53:55;;;;;;;35.05;21.88;;;;;;;7.23;99.02;103103.00;5019843;28;20030;-76
2022/03/27 04:56:20;;;;;;;33.85;21.63;;;;;;;7.43;97.69;103091.94;5022557;28;20033;-76
2022/03/27 04:58:45;;;;;;;31.60;18.23;;;;;;;7.59;96.35;103096.72;5022382;28;20371;-77
2022/03/27 05:01:11;;;;;;;36.60;21.83;;;;;;;7.45;96.76;103106.31;5021969;28;20041;-76
2022/03/27 05:03:36;;;;;;;37.53;22.33;;;;;;;7.53;96.31;103106.41;5023386;28;20510;-75
2022/03/27 05:06:02;;;;;;;36.97;21.48;;;;;;;7.34;97.35;103110.13;5022728;28;20115;-75
2022/03/27 05:08:27;;;;;;;33.15;19.75;;;;;;;7.62;95.28;103113.69;5020223;28;20041;-76
2022/03/27 05:10:53;;;;;;;41.72;24.50;;;;;;;7.31;96.60;103115.06;5021676;28;20064;-75
2022/03/27 05:13:19;;;;;;;36.20;19.90;;;;;;;7.39;97.14;103113.25;5022444;28;20048;-76
2022/03/27 05:15:45;;;;;;;42.45;24.92;;;;;;;7.19;96.84;103123.44;5022912;28;20472;-75
2022/03/27 05:18:11;;;;;;;28.15;17.67;;;;;;;7.64;94.64;103108.91;5021225;28;20026;-76
2022/03/27 05:20:40;;;;;;;39.83;23.27;;;;;;;7.15;97.00;103123.94;5023024;28;20460;-75
2022/03/27 05:23:05;;;;;;;41.38;23.42;;;;;;;6.99;98.08;103130.91;5021474;28;20120;-76
2022/03/27 05:25:38;;;;;;;36.70;21.40;;;;;;;7.25;95.89;103119.28;5022000;28;20097;-76
2022/03/27 05:28:04;;;;;;;31.30;16.40;;;;;;;7.31;95.44;103126.84;5021245;28;20380;-76
2022/03/27 05:30:31;;;;;;;38.03;19.20;;;;;;;7.07;96.82;103119.22;5022554;28;20041;-74
2022/03/27 05:32:56;;;;;;;35.53;17.90;;;;;;;6.96;98.11;103113.97;5026655;28;20033;-73
2022/03/27 05:35:22;;;;;;;42.08;21.65;;;;;;;6.80;99.53;103116.50;5024753;28;20048;-75
2022/03/27 05:37:48;;;;;;;30.20;15.85;;;;;;;7.17;96.72;103114.56;5025562;28;20484;-75
2022/03/27 05:40:20;;;;;;;37.78;18.50;;;;;;;6.87;98.76;103117.59;5025324;28;20025;-74
2022/03/27 05:42:46;;;;;;;35.35;17.42;;;;;;;7.14;96.75;103117.59;5026932;28;20026;-74
2022/03/27 05:45:12;;;;;;;41.50;24.05;;;;;;;6.84;98.54;103120.63;5026087;28;20108;-74
2022/03/27 05:47:38;;;;;;;41.40;23.13;;;;;;;6.91;98.22;103116.28;5023619;28;20459;-74
2022/03/27 05:50:04;;;;;;;41.17;21.25;;;;;;;6.75;100.00;103123.25;5025993;28;20029;-75
2022/03/27 05:52:30;;;;;;;42.20;23.92;;;;;;;6.74;100.00;103123.38;5024752;28;20033;-74
2022/03/27 05:54:56;;;;;;;43.08;23.35;;;;;;;6.69;100.00;103132.06;5026882;28;20367;-74
2022/03/27 05:57:21;;;;;;;44.03;23.42;;;;;;;6.89;99.74;103131.94;5024996;28;20021;-74
2022/03/27 05:59:47;;;;;;;44.08;23.05;;;;;;;6.75;100.00;103131.44;5026018;28;20116;-74
2022/03/27 06:02:13;;;;;;;45.03;23.50;;;;;;;6.72;100.00;103142.66;5025661;28;20033;-74
2022/03/27 06:04:39;;;;;;;43.50;21.52;;;;;;;6.80;100.00;103143.81;5025221;28;20042;-75
2022/03/27 06:07:05;;;;;;;42.03;22.55;;;;;;;6.82;100.00;103142.63;5025679;28;20510;-75
2022/03/27 06:09:30;;;;;;;41.05;22.65;;;;;;;6.78;100.00;103140.34;5024829;28;20026;-75
2022/03/27 06:11:55;;;;;;;44.83;23.65;;;;;;;6.78;100.00;103145.81;5022964;28;20080;-75
2022/03/27 06:14:21;;;;;;;40.65;17.50;;;;;;;6.82;100.00;103141.75;5024975;28;20491;-76
2022/03/27 06:16:46;;;;;;;44.45;21.77;;;;;;;6.97;98.68;103148.47;5023806;28;20033;-75
2022/03/27 06:19:11;;;;;;;38.78;20.08;;;;;;;7.29;95.22;103157.06;5024497;28;20148;-76
2022/03/27 06:21:37;;;;;;;40.58;19.25;;;;;;;7.01;96.79;103158.09;5025549;28;20534;-76
2022/03/27 06:24:02;;;;;;;31.90;15.88;;;;;;;7.45;93.35;103156.41;5024979;28;20033;-75
2022/03/27 06:26:27;;;;;;;45.65;23.30;;;;;;;6.83;97.75;103159.88;5023691;28;20308;-75
2022/03/27 06:28:53;;;;;;;40.20;17.63;;;;;;;7.10;96.41;103157.19;5025878;28;20484;-75
2022/03/27 06:31:18;;;;;;;49.08;24.67;;;;;;;7.00;96.26;103150.91;5024086;28;20061;-74
2022/03/27 06:33:43;;;;;;;36.50;17.00;;;;;;;7.09;96.45;103155.44;5025782;28;20044;-76
2022/03/27 06:36:08;;;;;;;47.13;21.48;;;;;;;6.95;97.08;103161.41;5025368;28;20034;-75
2022/03/27 06:38:34;;;;;;;51.15;24.23;;;;;;;6.74;98.84;103154.31;5025091;28;20030;-75
2022/03/27 06:40:59;;;;;;;35.75;17.42;;;;;;;7.15;96.37;103160.31;5023165;28;20025;-75
2022/03/27 06:43:24;;;;;;;48.85;23.05;;;;;;;7.08;95.91;103156.44;5025127;28;20025;-75
2022/03/27 06:45:50;;;;;;;34.75;16.58;;;;;;;7.21;95.80;103156.97;5025468;28;20082;-76
2022/03/27 06:48:16;;;;;;;48.67;23.48;;;;;;;6.95;97.11;103153.22;5023978;28;20041;-75
2022/03/27 06:50:44;;;;;;;43.13;18.48;;;;;;;6.71;99.01;103157.31;5024835;28;20504;-76
2022/03/27 06:53:09;;;;;;;;;;;;;;;7.00;98.02;103153.63;5024333;28;20030;-71
2022/03/27 06:55:34;;;;;;;51.42;23.88;;;;;;;6.80;98.12;103160.19;5025433;28;19940;-75
2022/03/27 06:58:00;;;;;;;52.97;24.42;;;;;;;6.81;98.71;103160.03;5023666;28;20036;-74
2022/03/27 07:03:11;;;;;;;44.92;19.27;;;;;;;6.96;97.63;103160.41;5023223;28;20068;-75
2022/03/27 07:05:41;;;;;;;53.10;23.90;;;;;;;6.88;98.33;103163.88;5024896;28;20048;-75
2022/03/27 07:08:09;;;;;;;54.15;22.92;;;;;;;6.88;99.44;103171.22;5023921;28;20477;-74
2022/03/27 07:10:36;;;;;;;46.15;19.13;;;;;;;7.22;95.48;103166.03;5024002;28;20033;-76
2022/03/27 07:13:02;;;;;;;46.80;23.08;;;;;;;6.97;96.53;103164.84;5023587;28;20112;-78
2022/03/27 07:15:27;;;;;;;44.58;21.50;;;;;;;7.01;95.61;103169.00;5024086;28;20108;-75
2022/03/27 07:17:53;;;;;;;35.75;17.23;;;;;;;7.14;95.09;103164.03;5024247;28;20120;-76
2022/03/27 07:20:24;;;;;;;42.17;21.13;;;;;;;6.91;95.86;103171.78;5020698;28;20040;-74
2022/03/27 07:22:50;;;;;;;39.45;20.17;;;;;;;6.81;96.64;103170.94;5021998;28;20096;-75
2022/03/27 07:25:15;;;;;;;35.25;15.65;;;;;;;6.90;96.65;103161.00;5024548;28;20119;-76
2022/03/27 07:27:41;;;;;;;34.00;16.15;;;;;;;7.00;95.04;103159.09;5024254;28;20033;-73
2022/03/27 07:30:08;;;;;;;38.28;18.90;;;;;;;7.10;93.14;103157.19;5024965;28;20136;-73
2022/03/27 07:32:33;;;;;;;40.65;18.80;;;;;;;7.15;92.27;103154.00;5024183;28;20039;-72
2022/03/27 07:34:59;;;;;;;36.10;18.60;;;;;;;6.83;96.02;103160.72;5022479;28;20112;-73
2022/03/27 07:37:25;;;;;;;36.78;18.70;;;;;;;6.96;94.39;103163.13;5021735;28;20152;-75
2022/03/27 07:39:50;;;;;;;21.10;12.18;;;;;;;7.41;91.54;103154.13;5021848;28;20029;-76
2022/03/27 07:42:15;;;;;;;26.38;11.25;;;;;;;7.25;91.37;103165.75;5024458;28;20075;-76
2022/03/27 07:44:41;;;;;;;25.73;13.38;;;;;;;7.30;90.83;103166.16;5024162;28;20026;-76
2022/03/27 07:47:06;;;;;;;38.70;21.52;;;;;;;7.01;92.49;103161.66;5022387;28;20033;-76
2022/03/27 07:49:32;;;;;;;31.05;15.70;;;;;;;6.98;93.92;103156.50;5023394;28;20179;-77
2022/03/27 07:52:00;;;;;;;30.08;13.30;;;;;;;7.11;93.17;103158.91;5022003;28;20136;-76
2022/03/27 07:54:26;;;;;;;39.42;21.67;;;;;;;7.21;91.66;103162.44;5024051;28;20033;-75
2022/03/27 07:56:51;;;;;;;27.20;16.02;;;;;;;7.27;92.81;103160.97;5024114;28;20098;-76
2022/03/27 07:59:17;;;;;;;37.10;20.00;;;;;;;6.99;94.44;103157.34;5023028;28;20116;-76
2022/03/27 08:01:42;;;;;;;37.25;19.85;;;;;;;7.21;92.92;103165.19;5021514;28;20202;-75
2022/03/27 08:04:07;;;;;;;27.45;13.75;;;;;;;7.45;92.04;103161.00;5024165;28;20048;-75
2022/03/27 08:06:36;;;;;;;40.22;22.15;;;;;;;7.20;92.34;103162.59;5023000;28;20308;-75
2022/03/27 08:09:05;;;;;;;43.58;23.92;;;;;;;7.18;93.89;103165.47;5021701;28;20835;-75
2022/03/27 08:11:32;;;;;;;42.13;22.35;;;;;;;7.31;94.25;103167.00;5021598;28;20022;-75
2022/03/27 08:13:57;;;;;;;40.33;22.05;;;;;;;7.44;94.61;103162.88;5017391;28;20021;-72
2022/03/27 08:16:22;;;;;;;42.13;21.98;;;;;;;7.54;93.46;103162.81;5021801;28;20116;-73
2022/03/27 08:18:47;;;;;;;32.45;17.38;;;;;;;7.91;89.96;103154.50;5022368;28;20025;-72
2022/03/27 08:21:13;;;;;;;36.22;20.75;;;;;;;7.80;90.66;103151.97;5022337;28;20098;-72
2022/03/27 08:23:38;;;;;;;33.92;19.27;;;;;;;7.53;92.39;103161.09;5021085;28;20387;-72
2022/03/27 08:28:47;;;;;;;37.22;19.48;;;;;;;7.51;91.63;103166.72;5023320;28;20376;-72
2022/03/27 08:31:12;;;;;;;33.25;17.83;;;;;;;7.90;87.77;103166.44;5022007;28;20520;-72
2022/03/27 08:33:38;;;;;;;34.95;18.17;;;;;;;7.63;89.14;103169.25;5022194;28;20022;-72
2022/03/27 08:36:03;;;;;;;35.05;19.88;;;;;;;7.48;91.15;103167.03;5022234;28;20087;-72
2022/03/27 08:38:28;;;;;;;36.75;19.95;;;;;;;7.66;91.31;103164.31;5022011;28;20025;-66
2022/03/27 08:40:55;;;;;;;27.23;16.17;;;;;;;7.96;89.70;103171.31;5022981;28;20025;-72
2022/03/27 08:43:21;;;;;;;25.38;13.80;;;;;;;8.22;86.00;103165.88;5018037;28;20029;-73
2022/03/27 08:45:47;;;;;;;34.45;20.10;;;;;;;7.71;88.99;103172.06;5022531;28;20036;-72
2022/03/27 08:48:13;;;;;;;32.05;19.83;;;;;;;7.71;88.43;103161.13;5020918;28;20025;-73
2022/03/27 08:50:59;;;;;;;33.60;19.33;;;;;;;7.78;88.19;103167.69;5022620;28;20104;-66
2022/03/27 08:53:30;;;;;;;36.45;20.40;;;;;;;8.13;88.19;103161.34;5021983;28;20449;-72
2022/03/27 08:56:02;;;;;;;35.60;20.27;;;;;;;8.76;86.50;103165.78;5023191;28;20033;-75
2022/03/27 08:58:36;;;;;;;28.83;16.23;;;;;;;9.68;81.22;103162.25;5022226;28;20022;-74
2022/03/27 09:01:04;;;;;;;24.27;11.63;;;;;;;10.12;76.70;103150.94;5022170;28;20125;-73
2022/03/27 09:03:30;;;;;;;21.23;11.02;;;;;;;10.37;74.51;103163.69;5022670;28;20048;-73
2022/03/27 09:05:56;;;;;;;29.67;16.67;;;;;;;11.34;72.54;103158.09;5020669;28;20037;-75
2022/03/27 09:08:21;;;;;;;25.27;16.33;;;;;;;12.88;68.14;103156.03;5021954;28;20132;-75
2022/03/27 09:10:46;;;;;;;26.30;15.85;;;;;;;14.42;60.84;103154.00;5021153;28;20039;-76
2022/03/27 09:13:14;;;;;;;25.80;15.73;;;;;;;16.10;56.88;103148.03;5021230;28;20091;-75
2022/03/27 09:15:42;;;;;;;25.77;16.25;;;;;;;17.05;52.09;103149.47;5022372;28;20026;-75
2022/03/27 09:18:09;;;;;;;24.15;15.40;;;;;;;16.88;50.84;103153.81;5018277;28;20413;-76
2022/03/27 09:20:46;;;;;;;23.48;15.60;;;;;;;17.73;51.19;103150.94;5022144;28;20021;-76
2022/03/27 09:23:24;;;;;;;19.35;12.55;;;;;;;17.54;48.84;103152.72;5009946;28;20025;-76
2022/03/27 09:25:56;;;;;;;23.77;16.08;;;;;;;17.64;47.97;103151.19;5022105;28;20119;-74
2022/03/27 09:28:34;;;;;;;23.75;15.02;;;;;;;18.27;48.16;103155.06;5019390;28;20017;-74
2022/03/27 09:31:21;;;;;;;23.85;14.18;;;;;;;18.54;48.08;103148.19;5021934;28;20038;-74
2022/03/27 09:34:01;;;;;;;24.25;15.18;;;;;;;18.18;48.00;103156.41;5019985;28;20033;-72
2022/03/27 09:36:34;;;;;;;24.42;16.63;;;;;;;18.32;46.25;103152.44;5018861;28;20044;-71
2022/03/27 09:39:17;;;;;;;26.38;15.75;;;;;;;18.99;43.35;103155.47;5005084;28;20052;-72
2022/03/27 09:41:54;;;;;;;22.75;12.15;;;;;;;18.92;44.47;103152.78;5001535;28;20524;-72
2022/03/27 09:44:28;;;;;;;25.80;16.08;;;;;;;19.85;45.49;103138.53;5002062;28;20030;-71
2022/03/27 09:47:01;;;;;;;24.40;17.08;;;;;;;20.60;42.81;103135.19;5003134;28;20117;-72
2022/03/27 09:49:37;;;;;;;23.88;13.20;;;;;;;20.25;41.57;103128.69;5018550;28;20013;-72
2022/03/27 09:52:13;;;;;;;23.58;15.95;;;;;;;20.80;40.02;103131.16;5018733;28;20179;-72
2022/03/27 09:54:55;;;;;;;23.52;15.98;;;;;;;22.63;42.29;103131.13;5020390;28;20324;-65
2022/03/27 09:57:26;;;;;;;22.88;16.13;;;;;;;23.72;36.10;103128.41;5020865;28;20125;-70
2022/03/27 09:59:53;;;;;;;22.23;15.40;;;;;;;23.05;34.88;103123.06;5020858;28;20358;-72
2022/03/27 10:02:22;;;;;;;22.63;15.88;;;;;;;22.88;36.50;103117.50;5019027;28;20091;-72
2022/03/27 10:04:58;;;;;;;23.80;16.83;;;;;;;23.71;35.07;103120.25;5020008;28;20041;-72
2022/03/27 10:07:25;;;;;;;22.90;16.13;;;;;;;24.07;33.28;103115.81;5018540;28;20033;-72
2022/03/27 10:09:52;;;;;;;23.02;16.48;;;;;;;24.87;31.78;103110.25;5021257;28;20032;-72
2022/03/27 10:12:21;;;;;;;20.90;15.73;;;;;;;25.24;30.95;103099.81;5021234;28;20021;-72
2022/03/27 10:14:47;;;;;;;23.20;16.48;;;;;;;25.43;30.96;103100.13;5019482;28;20099;-72
2022/03/27 10:17:14;;;;;;;22.85;15.50;;;;;;;24.82;31.01;103108.25;5024354;28;20393;-72
2022/03/27 10:19:48;;;;;;;21.95;16.77;;;;;;;24.63;33.43;103105.03;5025022;28;20108;-73
2022/03/27 10:22:20;;;;;;;22.95;16.90;;;;;;;24.43;32.50;103102.09;5023376;28;20411;-72
2022/03/27 10:24:47;;;;;;;21.55;16.25;;;;;;;24.70;30.21;103093.59;5024943;28;20301;-72
2022/03/27 10:27:16;;;;;;;21.63;15.40;;;;;;;25.71;30.88;103084.72;5023391;28;20476;-73
2022/03/27 10:29:42;;;;;;;19.85;15.27;;;;;;;26.23;28.76;103083.63;5025170;28;20028;-73
2022/03/27 10:32:10;;;;;;;18.52;14.75;;;;;;;25.61;28.61;103084.69;5025138;28;20231;-72
2022/03/27 10:34:39;;;;;;;;;;;;;;;26.32;32.45;103079.13;5025187;28;20528;-74
2022/03/27 10:37:32;;;;;;;17.23;11.55;;;;;;;24.66;30.17;103082.03;5023841;28;19928;-72
2022/03/27 10:40:21;;;;;;;15.13;8.57;;;;;;;23.26;31.92;103082.94;5023347;28;20351;-73
2022/03/27 10:42:59;;;;;;;18.15;13.07;;;;;;;23.09;33.93;103079.41;5025370;28;20041;-72
2022/03/27 10:45:25;;;;;;;18.65;11.55;;;;;;;23.60;30.96;103068.75;5023798;28;20479;-72
2022/03/27 10:48:14;;;;;;;19.63;13.88;;;;;;;24.45;32.68;103069.81;5024956;28;20030;-73
2022/03/27 10:50:53;;;;;;;20.83;13.48;;;;;;;23.93;31.49;103069.69;5023142;28;20124;-73
2022/03/27 10:53:23;;;;;;;19.25;13.15;;;;;;;23.95;31.28;103061.81;5023041;28;20021;-72
2022/03/27 10:55:52;;;;;;;18.25;13.20;;;;;;;23.88;29.94;103067.66;5022139;28;20025;-72
2022/03/27 10:58:38;;;;;;;16.67;11.85;;;;;;;24.98;29.92;103058.59;5023096;28;20029;-72
2022/03/27 11:01:09;;;;;;;17.88;12.70;;;;;;;24.96;28.29;103058.03;5022204;28;20029;-72
2022/03/27 11:04:04;;;;;;;16.83;11.40;;;;;;;26.10;28.91;103054.09;5023498;28;20729;-72
2022/03/27 11:06:31;;;;;;;15.27;10.90;;;;;;;25.51;26.91;103050.91;5019528;28;20040;-72
2022/03/27 11:09:02;;;;;;;18.77;12.73;;;;;;;25.88;28.79;103057.16;5022961;28;20049;-73
2022/03/27 11:11:34;;;;;;;16.17;11.35;;;;;;;26.07;28.82;103056.63;5021152;28;20013;-72
2022/03/27 11:14:00;;;;;;;16.25;11.35;;;;;;;26.57;27.11;103050.09;5021689;28;20037;-72
2022/03/27 11:16:26;;;;;;;14.95;10.60;;;;;;;26.92;25.27;103039.81;5022581;28;20032;-72
2022/03/27 11:18:51;;;;;;;15.07;10.77;;;;;;;25.14;27.45;103042.63;5021637;28;20022;-72
2022/03/27 11:21:26;;;;;;;16.75;11.50;;;;;;;25.74;28.72;103033.47;5021195;28;20029;-71
2022/03/27 11:23:52;;;;;;;16.00;10.75;;;;;;;26.42;25.11;103040.81;5023044;28;20124;-72